sensor_id;sensor_type;location;lat;lon;timestamp;pressure;altitude;pressure_sealevel;temperature
70050;BMP180;57391;51.306;22.680;2023-11-18T00:01:12;99510.00;;;2.40
70050;BMP180;57391;51.306;22.680;2023-11-18T00:03:57;99508.40;;;2.46
70050;BMP180;57391;51.306;22.680;2023-11-18T00:06:43;99508.40;;;2.40
70050;BMP180;57391;51.306;22.680;2023-11-18T00:09:29;99507.00;;;2.40
70050;BMP180;57391;51.306;22.680;2023-11-18T00:12:14;99510.00;;;2.42
70050;BMP180;57391;51.306;22.680;2023-11-18T00:15:04;99517.20;;;2.42
70050;BMP180;57391;51.306;22.680;2023-11-18T00:17:50;99517.60;;;2.44
70050;BMP180;57391;51.306;22.680;2023-11-18T00:20:36;99518.20;;;2.42
70050;BMP180;57391;51.306;22.680;2023-11-18T00:23:21;99520.60;;;2.50
70050;BMP180;57391;51.306;22.680;2023-11-18T00:26:07;99525.20;;;2.50
70050;BMP180;57391;51.306;22.680;2023-11-18T00:28:52;99526.60;;;2.50
70050;BMP180;57391;51.306;22.680;2023-11-18T00:31:38;99533.40;;;2.46
70050;BMP180;57391;51.306;22.680;2023-11-18T00:34:23;99532.60;;;2.44
70050;BMP180;57391;51.306;22.680;2023-11-18T00:37:09;99539.20;;;2.50
70050;BMP180;57391;51.306;22.680;2023-11-18T00:39:55;99535.80;;;2.50
70050;BMP180;57391;51.306;22.680;2023-11-18T00:42:40;99541.40;;;2.50
70050;BMP180;57391;51.306;22.680;2023-11-18T00:45:26;99539.20;;;2.50
70050;BMP180;57391;51.306;22.680;2023-11-18T00:48:11;99546.40;;;2.50
70050;BMP180;57391;51.306;22.680;2023-11-18T00:50:57;99543.20;;;2.50
70050;BMP180;57391;51.306;22.680;2023-11-18T00:53:42;99541.40;;;2.50
70050;BMP180;57391;51.306;22.680;2023-11-18T00:56:28;99539.20;;;2.50
70050;BMP180;57391;51.306;22.680;2023-11-18T00:59:14;99541.60;;;2.50
70050;BMP180;57391;51.306;22.680;2023-11-18T01:02:00;99542.20;;;2.50
70050;BMP180;57391;51.306;22.680;2023-11-18T01:04:48;99546.00;;;2.50
70050;BMP180;57391;51.306;22.680;2023-11-18T01:07:34;99545.00;;;2.50
70050;BMP180;57391;51.306;22.680;2023-11-18T01:10:19;99549.20;;;2.50
70050;BMP180;57391;51.306;22.680;2023-11-18T01:13:05;99550.60;;;2.50
70050;BMP180;57391;51.306;22.680;2023-11-18T01:15:51;99543.80;;;2.48
70050;BMP180;57391;51.306;22.680;2023-11-18T01:18:36;99543.20;;;2.44
70050;BMP180;57391;51.306;22.680;2023-11-18T01:21:22;99543.00;;;2.46
70050;BMP180;57391;51.306;22.680;2023-11-18T01:24:08;99542.00;;;2.44
70050;BMP180;57391;51.306;22.680;2023-11-18T01:26:54;99544.40;;;2.40
70050;BMP180;57391;51.306;22.680;2023-11-18T01:29:40;99545.20;;;2.40
70050;BMP180;57391;51.306;22.680;2023-11-18T01:32:25;99544.40;;;2.48
70050;BMP180;57391;51.306;22.680;2023-11-18T01:35:11;99549.20;;;2.50
70050;BMP180;57391;51.306;22.680;2023-11-18T01:37:58;99543.80;;;2.50
70050;BMP180;57391;51.306;22.680;2023-11-18T01:40:43;99544.20;;;2.50
70050;BMP180;57391;51.306;22.680;2023-11-18T01:43:29;99545.80;;;2.50
70050;BMP180;57391;51.306;22.680;2023-11-18T01:46:18;99545.00;;;2.50
70050;BMP180;57391;51.306;22.680;2023-11-18T01:49:04;99551.60;;;2.50
70050;BMP180;57391;51.306;22.680;2023-11-18T01:51:50;99551.40;;;2.50
70050;BMP180;57391;51.306;22.680;2023-11-18T01:54:40;99553.80;;;2.50
70050;BMP180;57391;51.306;22.680;2023-11-18T01:57:25;99555.40;;;2.50
70050;BMP180;57391;51.306;22.680;2023-11-18T02:00:13;99561.60;;;2.50
70050;BMP180;57391;51.306;22.680;2023-11-18T02:02:58;99558.80;;;2.48
70050;BMP180;57391;51.306;22.680;2023-11-18T02:05:44;99562.80;;;2.46
70050;BMP180;57391;51.306;22.680;2023-11-18T02:08:30;99563.60;;;2.42
70050;BMP180;57391;51.306;22.680;2023-11-18T02:11:28;99567.20;;;2.40
70050;BMP180;57391;51.306;22.680;2023-11-18T02:14:20;99571.00;;;2.40
70050;BMP180;57391;51.306;22.680;2023-11-18T02:17:09;99574.20;;;2.40
70050;BMP180;57391;51.306;22.680;2023-11-18T02:19:59;99573.40;;;2.40
70050;BMP180;57391;51.306;22.680;2023-11-18T02:22:45;99572.20;;;2.40
70050;BMP180;57391;51.306;22.680;2023-11-18T02:25:34;99576.40;;;2.40
70050;BMP180;57391;51.306;22.680;2023-11-18T02:28:19;99571.60;;;2.40
70050;BMP180;57391;51.306;22.680;2023-11-18T02:31:33;99572.80;;;2.40
70050;BMP180;57391;51.306;22.680;2023-11-18T02:34:27;99577.60;;;2.40
70050;BMP180;57391;51.306;22.680;2023-11-18T02:37:15;99572.40;;;2.34
70050;BMP180;57391;51.306;22.680;2023-11-18T02:40:04;99571.80;;;2.38
70050;BMP180;57391;51.306;22.680;2023-11-18T02:43:01;99576.00;;;2.40
70050;BMP180;57391;51.306;22.680;2023-11-18T02:45:51;99573.20;;;2.40
70050;BMP180;57391;51.306;22.680;2023-11-18T02:48:38;99579.20;;;2.36
70050;BMP180;57391;51.306;22.680;2023-11-18T02:51:24;99582.00;;;2.38
70050;BMP180;57391;51.306;22.680;2023-11-18T02:54:11;99587.80;;;2.40
70050;BMP180;57391;51.306;22.680;2023-11-18T02:56:56;99589.20;;;2.40
70050;BMP180;57391;51.306;22.680;2023-11-18T02:59:42;99589.20;;;2.40
70050;BMP180;57391;51.306;22.680;2023-11-18T03:02:27;99587.80;;;2.40
70050;BMP180;57391;51.306;22.680;2023-11-18T03:05:16;99589.20;;;2.32
70050;BMP180;57391;51.306;22.680;2023-11-18T03:08:01;99587.20;;;2.40
70050;BMP180;57391;51.306;22.680;2023-11-18T03:10:51;99588.60;;;2.30
70050;BMP180;57391;51.306;22.680;2023-11-18T03:13:38;99589.00;;;2.30
70050;BMP180;57391;51.306;22.680;2023-11-18T03:16:23;99591.00;;;2.30
70050;BMP180;57391;51.306;22.680;2023-11-18T03:19:10;99593.80;;;2.30
70050;BMP180;57391;51.306;22.680;2023-11-18T03:21:55;99600.40;;;2.30
70050;BMP180;57391;51.306;22.680;2023-11-18T03:24:41;99602.40;;;2.30
70050;BMP180;57391;51.306;22.680;2023-11-18T03:27:27;99603.40;;;2.20
70050;BMP180;57391;51.306;22.680;2023-11-18T03:30:13;99605.80;;;2.20
70050;BMP180;57391;51.306;22.680;2023-11-18T03:32:59;99602.60;;;2.20
70050;BMP180;57391;51.306;22.680;2023-11-18T03:35:45;99604.40;;;2.20
70050;BMP180;57391;51.306;22.680;2023-11-18T03:38:30;99604.20;;;2.20
70050;BMP180;57391;51.306;22.680;2023-11-18T03:41:16;99607.80;;;2.20
70050;BMP180;57391;51.306;22.680;2023-11-18T03:44:01;99607.20;;;2.20
70050;BMP180;57391;51.306;22.680;2023-11-18T03:46:46;99601.40;;;2.20
70050;BMP180;57391;51.306;22.680;2023-11-18T03:49:32;99600.00;;;2.20
70050;BMP180;57391;51.306;22.680;2023-11-18T03:52:18;99608.60;;;2.20
70050;BMP180;57391;51.306;22.680;2023-11-18T03:55:04;99606.60;;;2.20
70050;BMP180;57391;51.306;22.680;2023-11-18T03:57:52;99609.20;;;2.20
70050;BMP180;57391;51.306;22.680;2023-11-18T04:00:37;99609.20;;;2.20
70050;BMP180;57391;51.306;22.680;2023-11-18T04:03:23;99614.00;;;2.20
70050;BMP180;57391;51.306;22.680;2023-11-18T04:06:09;99618.60;;;2.20
70050;BMP180;57391;51.306;22.680;2023-11-18T04:08:54;99622.20;;;2.18
70050;BMP180;57391;51.306;22.680;2023-11-18T04:11:39;99624.40;;;2.20
70050;BMP180;57391;51.306;22.680;2023-11-18T04:14:26;99626.20;;;2.20
70050;BMP180;57391;51.306;22.680;2023-11-18T04:17:12;99629.20;;;2.20
70050;BMP180;57391;51.306;22.680;2023-11-18T04:19:58;99628.20;;;2.20
70050;BMP180;57391;51.306;22.680;2023-11-18T04:22:44;99624.80;;;2.20
70050;BMP180;57391;51.306;22.680;2023-11-18T04:25:30;99625.20;;;2.20
70050;BMP180;57391;51.306;22.680;2023-11-18T04:28:15;99627.40;;;2.20
70050;BMP180;57391;51.306;22.680;2023-11-18T04:31:01;99625.20;;;2.20
70050;BMP180;57391;51.306;22.680;2023-11-18T04:33:48;99623.20;;;2.20
70050;BMP180;57391;51.306;22.680;2023-11-18T04:36:33;99622.60;;;2.20
70050;BMP180;57391;51.306;22.680;2023-11-18T04:39:19;99632.40;;;2.20
70050;BMP180;57391;51.306;22.680;2023-11-18T04:42:06;99632.20;;;2.20
70050;BMP180;57391;51.306;22.680;2023-11-18T04:44:52;99634.00;;;2.20
70050;BMP180;57391;51.306;22.680;2023-11-18T04:47:37;99635.20;;;2.20
70050;BMP180;57391;51.306;22.680;2023-11-18T04:50:23;99635.80;;;2.20
70050;BMP180;57391;51.306;22.680;2023-11-18T04:53:09;99639.80;;;2.20
70050;BMP180;57391;51.306;22.680;2023-11-18T04:55:56;99642.80;;;2.20
70050;BMP180;57391;51.306;22.680;2023-11-18T04:58:41;99648.60;;;2.20
70050;BMP180;57391;51.306;22.680;2023-11-18T05:01:27;99650.20;;;2.20
70050;BMP180;57391;51.306;22.680;2023-11-18T05:04:12;99650.80;;;2.20
70050;BMP180;57391;51.306;22.680;2023-11-18T05:06:58;99649.00;;;2.20
70050;BMP180;57391;51.306;22.680;2023-11-18T05:09:43;99647.60;;;2.20
70050;BMP180;57391;51.306;22.680;2023-11-18T05:12:29;99645.20;;;2.30
70050;BMP180;57391;51.306;22.680;2023-11-18T05:15:14;99649.80;;;2.30
70050;BMP180;57391;51.306;22.680;2023-11-18T05:17:59;99650.60;;;2.30
70050;BMP180;57391;51.306;22.680;2023-11-18T05:20:45;99657.00;;;2.30
70050;BMP180;57391;51.306;22.680;2023-11-18T05:23:34;99661.40;;;2.26
70050;BMP180;57391;51.306;22.680;2023-11-18T05:26:20;99666.40;;;2.26
70050;BMP180;57391;51.306;22.680;2023-11-18T05:29:06;99668.20;;;2.24
70050;BMP180;57391;51.306;22.680;2023-11-18T05:31:52;99668.60;;;2.20
70050;BMP180;57391;51.306;22.680;2023-11-18T05:34:37;99667.80;;;2.28
70050;BMP180;57391;51.306;22.680;2023-11-18T05:37:24;99667.80;;;2.28
70050;BMP180;57391;51.306;22.680;2023-11-18T05:40:10;99672.00;;;2.30
70050;BMP180;57391;51.306;22.680;2023-11-18T05:43:00;99677.20;;;2.30
70050;BMP180;57391;51.306;22.680;2023-11-18T05:45:48;99677.80;;;2.30
70050;BMP180;57391;51.306;22.680;2023-11-18T05:48:53;99685.20;;;2.30
70050;BMP180;57391;51.306;22.680;2023-11-18T05:51:40;99683.80;;;2.30
70050;BMP180;57391;51.306;22.680;2023-11-18T05:54:26;99688.80;;;2.30
70050;BMP180;57391;51.306;22.680;2023-11-18T05:57:11;99688.20;;;2.30
70050;BMP180;57391;51.306;22.680;2023-11-18T05:59:57;99695.60;;;2.30
70050;BMP180;57391;51.306;22.680;2023-11-18T06:02:42;99699.40;;;2.30
70050;BMP180;57391;51.306;22.680;2023-11-18T06:05:29;99697.20;;;2.30
70050;BMP180;57391;51.306;22.680;2023-11-18T06:08:18;99700.20;;;2.30
70050;BMP180;57391;51.306;22.680;2023-11-18T06:11:03;99705.60;;;2.30
70050;BMP180;57391;51.306;22.680;2023-11-18T06:13:57;99713.20;;;2.30
70050;BMP180;57391;51.306;22.680;2023-11-18T06:16:43;99712.60;;;2.30
70050;BMP180;57391;51.306;22.680;2023-11-18T06:19:28;99710.20;;;2.30
70050;BMP180;57391;51.306;22.680;2023-11-18T06:22:14;99716.40;;;2.30
70050;BMP180;57391;51.306;22.680;2023-11-18T06:25:00;99719.80;;;2.30
70050;BMP180;57391;51.306;22.680;2023-11-18T06:27:46;99721.60;;;2.30
70050;BMP180;57391;51.306;22.680;2023-11-18T06:30:32;99724.00;;;2.30
70050;BMP180;57391;51.306;22.680;2023-11-18T06:33:18;99730.60;;;2.30
70050;BMP180;57391;51.306;22.680;2023-11-18T06:36:17;99731.80;;;2.40
70050;BMP180;57391;51.306;22.680;2023-11-18T06:39:03;99735.60;;;2.40
70050;BMP180;57391;51.306;22.680;2023-11-18T06:41:50;99738.40;;;2.40
70050;BMP180;57391;51.306;22.680;2023-11-18T06:44:38;99744.20;;;2.42
70050;BMP180;57391;51.306;22.680;2023-11-18T06:47:23;99748.40;;;2.48
70050;BMP180;57391;51.306;22.680;2023-11-18T06:50:09;99756.20;;;2.48
70050;BMP180;57391;51.306;22.680;2023-11-18T06:52:55;99761.40;;;2.44
70050;BMP180;57391;51.306;22.680;2023-11-18T06:55:41;99766.20;;;2.44
70050;BMP180;57391;51.306;22.680;2023-11-18T06:58:26;99762.00;;;2.42
70050;BMP180;57391;51.306;22.680;2023-11-18T07:01:13;99761.00;;;2.40
70050;BMP180;57391;51.306;22.680;2023-11-18T07:03:59;99761.20;;;2.40
70050;BMP180;57391;51.306;22.680;2023-11-18T07:06:45;99769.20;;;2.40
70050;BMP180;57391;51.306;22.680;2023-11-18T07:09:31;99772.20;;;2.40
70050;BMP180;57391;51.306;22.680;2023-11-18T07:12:21;99774.00;;;2.40
70050;BMP180;57391;51.306;22.680;2023-11-18T07:15:08;99779.00;;;2.46
70050;BMP180;57391;51.306;22.680;2023-11-18T07:17:56;99782.20;;;2.50
70050;BMP180;57391;51.306;22.680;2023-11-18T07:20:42;99785.00;;;2.50
70050;BMP180;57391;51.306;22.680;2023-11-18T07:23:27;99788.40;;;2.50
70050;BMP180;57391;51.306;22.680;2023-11-18T07:26:13;99787.80;;;2.60
70050;BMP180;57391;51.306;22.680;2023-11-18T07:29:01;99793.40;;;2.60
70050;BMP180;57391;51.306;22.680;2023-11-18T07:31:47;99793.00;;;2.60
70050;BMP180;57391;51.306;22.680;2023-11-18T07:34:34;99796.40;;;2.60
70050;BMP180;57391;51.306;22.680;2023-11-18T07:37:20;99799.80;;;2.60
70050;BMP180;57391;51.306;22.680;2023-11-18T07:40:07;99796.80;;;2.60
70050;BMP180;57391;51.306;22.680;2023-11-18T07:42:54;99805.60;;;2.70
70050;BMP180;57391;51.306;22.680;2023-11-18T07:45:46;99802.20;;;2.70
70050;BMP180;57391;51.306;22.680;2023-11-18T07:48:34;99805.40;;;2.70
70050;BMP180;57391;51.306;22.680;2023-11-18T07:51:21;99810.40;;;2.80
70050;BMP180;57391;51.306;22.680;2023-11-18T07:54:08;99804.20;;;2.80
70050;BMP180;57391;51.306;22.680;2023-11-18T07:56:55;99803.80;;;2.80
70050;BMP180;57391;51.306;22.680;2023-11-18T07:59:40;99814.00;;;2.86
70050;BMP180;57391;51.306;22.680;2023-11-18T08:02:26;99811.80;;;2.90
70050;BMP180;57391;51.306;22.680;2023-11-18T08:05:13;99823.40;;;2.90
70050;BMP180;57391;51.306;22.680;2023-11-18T08:08:00;99821.00;;;2.80
70050;BMP180;57391;51.306;22.680;2023-11-18T08:10:45;99822.00;;;2.80
70050;BMP180;57391;51.306;22.680;2023-11-18T08:13:33;99825.20;;;2.80
70050;BMP180;57391;51.306;22.680;2023-11-18T08:16:19;99833.40;;;2.80
70050;BMP180;57391;51.306;22.680;2023-11-18T08:19:04;99834.20;;;2.80
70050;BMP180;57391;51.306;22.680;2023-11-18T08:21:53;99840.00;;;2.80
70050;BMP180;57391;51.306;22.680;2023-11-18T08:24:39;99839.20;;;2.80
70050;BMP180;57391;51.306;22.680;2023-11-18T08:27:24;99841.00;;;2.80
70050;BMP180;57391;51.306;22.680;2023-11-18T08:30:10;99844.20;;;2.80
70050;BMP180;57391;51.306;22.680;2023-11-18T08:32:59;99842.60;;;2.80
70050;BMP180;57391;51.306;22.680;2023-11-18T08:35:45;99848.80;;;2.84
70050;BMP180;57391;51.306;22.680;2023-11-18T08:38:31;99852.80;;;2.84
70050;BMP180;57391;51.306;22.680;2023-11-18T08:41:17;99857.80;;;2.90
70050;BMP180;57391;51.306;22.680;2023-11-18T08:44:02;99858.60;;;2.90
70050;BMP180;57391;51.306;22.680;2023-11-18T08:46:49;99860.80;;;3.00
70050;BMP180;57391;51.306;22.680;2023-11-18T08:49:37;99867.80;;;3.00
70050;BMP180;57391;51.306;22.680;2023-11-18T08:52:23;99867.40;;;3.06
70050;BMP180;57391;51.306;22.680;2023-11-18T08:55:11;99870.20;;;3.10
70050;BMP180;57391;51.306;22.680;2023-11-18T08:58:03;99871.00;;;3.12
70050;BMP180;57391;51.306;22.680;2023-11-18T09:00:58;99869.40;;;3.12
70050;BMP180;57391;51.306;22.680;2023-11-18T09:03:59;99879.00;;;3.20
70050;BMP180;57391;51.306;22.680;2023-11-18T09:06:46;99875.40;;;3.20
70050;BMP180;57391;51.306;22.680;2023-11-18T09:09:33;99883.00;;;3.24
70050;BMP180;57391;51.306;22.680;2023-11-18T09:12:19;99885.60;;;3.30
70050;BMP180;57391;51.306;22.680;2023-11-18T09:15:05;99886.40;;;3.26
70050;BMP180;57391;51.306;22.680;2023-11-18T09:17:53;99887.00;;;3.30
70050;BMP180;57391;51.306;22.680;2023-11-18T09:20:39;99894.40;;;3.30
70050;BMP180;57391;51.306;22.680;2023-11-18T09:23:25;99896.20;;;3.30
70050;BMP180;57391;51.306;22.680;2023-11-18T09:26:12;99897.40;;;3.40
70050;BMP180;57391;51.306;22.680;2023-11-18T09:28:58;99894.40;;;3.38
70050;BMP180;57391;51.306;22.680;2023-11-18T09:31:47;99894.60;;;3.40
70050;BMP180;57391;51.306;22.680;2023-11-18T09:34:33;99899.00;;;3.40
70050;BMP180;57391;51.306;22.680;2023-11-18T09:37:19;99900.40;;;3.40
70050;BMP180;57391;51.306;22.680;2023-11-18T09:40:13;99900.20;;;3.40
70050;BMP180;57391;51.306;22.680;2023-11-18T09:42:59;99901.40;;;3.36
70050;BMP180;57391;51.306;22.680;2023-11-18T09:45:55;99906.00;;;3.36
70050;BMP180;57391;51.306;22.680;2023-11-18T09:48:46;99901.20;;;3.38
70050;BMP180;57391;51.306;22.680;2023-11-18T09:51:38;99905.20;;;3.40
70050;BMP180;57391;51.306;22.680;2023-11-18T09:54:36;99902.80;;;3.40
70050;BMP180;57391;51.306;22.680;2023-11-18T09:57:38;99902.40;;;3.40
70050;BMP180;57391;51.306;22.680;2023-11-18T10:00:28;99902.80;;;3.40
70050;BMP180;57391;51.306;22.680;2023-11-18T10:03:18;99911.60;;;3.40
70050;BMP180;57391;51.306;22.680;2023-11-18T10:06:05;99914.40;;;3.40
70050;BMP180;57391;51.306;22.680;2023-11-18T10:08:53;99911.40;;;3.46
70050;BMP180;57391;51.306;22.680;2023-11-18T10:11:41;99909.60;;;3.42
70050;BMP180;57391;51.306;22.680;2023-11-18T10:14:27;99911.00;;;3.42
70050;BMP180;57391;51.306;22.680;2023-11-18T10:17:13;99908.60;;;3.40
70050;BMP180;57391;51.306;22.680;2023-11-18T10:19:59;99915.60;;;3.40
70050;BMP180;57391;51.306;22.680;2023-11-18T10:22:45;99913.80;;;3.40
70050;BMP180;57391;51.306;22.680;2023-11-18T10:25:31;99921.20;;;3.40
70050;BMP180;57391;51.306;22.680;2023-11-18T10:28:34;99926.60;;;3.42
70050;BMP180;57391;51.306;22.680;2023-11-18T10:31:21;99927.60;;;3.48
70050;BMP180;57391;51.306;22.680;2023-11-18T10:34:09;99927.20;;;3.40
70050;BMP180;57391;51.306;22.680;2023-11-18T10:37:01;99923.80;;;3.40
70050;BMP180;57391;51.306;22.680;2023-11-18T10:39:49;99932.20;;;3.40
70050;BMP180;57391;51.306;22.680;2023-11-18T10:42:37;99932.80;;;3.40
70050;BMP180;57391;51.306;22.680;2023-11-18T10:45:26;99935.60;;;3.40
70050;BMP180;57391;51.306;22.680;2023-11-18T10:48:13;99930.60;;;3.40
70050;BMP180;57391;51.306;22.680;2023-11-18T10:51:03;99930.60;;;3.40
70050;BMP180;57391;51.306;22.680;2023-11-18T10:53:51;99935.40;;;3.42
70050;BMP180;57391;51.306;22.680;2023-11-18T10:56:50;99936.40;;;3.40
70050;BMP180;57391;51.306;22.680;2023-11-18T10:59:36;99940.80;;;3.40
70050;BMP180;57391;51.306;22.680;2023-11-18T11:02:42;99943.20;;;3.42
70050;BMP180;57391;51.306;22.680;2023-11-18T11:05:29;99946.80;;;3.50
70050;BMP180;57391;51.306;22.680;2023-11-18T11:08:19;99945.60;;;3.50
70050;BMP180;57391;51.306;22.680;2023-11-18T11:11:06;99943.20;;;3.50
70050;BMP180;57391;51.306;22.680;2023-11-18T11:13:57;99947.20;;;3.50
70050;BMP180;57391;51.306;22.680;2023-11-18T11:19:55;99949.60;;;3.60
70050;BMP180;57391;51.306;22.680;2023-11-18T11:29:18;99948.60;;;3.68
70050;BMP180;57391;51.306;22.680;2023-11-18T11:32:32;99954.40;;;3.70
70050;BMP180;57391;51.306;22.680;2023-11-18T11:35:31;99962.00;;;3.70
70050;BMP180;57391;51.306;22.680;2023-11-18T11:38:19;99962.00;;;3.70
70050;BMP180;57391;51.306;22.680;2023-11-18T11:41:06;99960.80;;;3.70
70050;BMP180;57391;51.306;22.680;2023-11-18T11:43:53;99969.60;;;3.70
70050;BMP180;57391;51.306;22.680;2023-11-18T11:46:43;99963.60;;;3.68
70050;BMP180;57391;51.306;22.680;2023-11-18T11:49:53;99966.40;;;3.60
70050;BMP180;57391;51.306;22.680;2023-11-18T11:52:48;99969.20;;;3.60
70050;BMP180;57391;51.306;22.680;2023-11-18T11:55:47;99968.40;;;3.60
70050;BMP180;57391;51.306;22.680;2023-11-18T11:58:37;99967.40;;;3.60
70050;BMP180;57391;51.306;22.680;2023-11-18T12:01:32;99967.80;;;3.60
70050;BMP180;57391;51.306;22.680;2023-11-18T12:04:23;99975.20;;;3.60
70050;BMP180;57391;51.306;22.680;2023-11-18T12:07:15;99977.20;;;3.60
70050;BMP180;57391;51.306;22.680;2023-11-18T12:10:01;99978.60;;;3.54
70050;BMP180;57391;51.306;22.680;2023-11-18T12:13:07;99980.00;;;3.50
70050;BMP180;57391;51.306;22.680;2023-11-18T12:15:55;99978.60;;;3.50
70050;BMP180;57391;51.306;22.680;2023-11-18T12:19:29;99981.20;;;3.50
70050;BMP180;57391;51.306;22.680;2023-11-18T12:22:21;99982.20;;;3.50
70050;BMP180;57391;51.306;22.680;2023-11-18T12:28:08;99992.00;;;3.52
70050;BMP180;57391;51.306;22.680;2023-11-18T12:30:55;99990.80;;;3.58
70050;BMP180;57391;51.306;22.680;2023-11-18T12:36:59;100004.40;;;3.56
70050;BMP180;57391;51.306;22.680;2023-11-18T12:43:49;100011.40;;;3.50
70050;BMP180;57391;51.306;22.680;2023-11-18T12:49:27;100018.00;;;3.50
70050;BMP180;57391;51.306;22.680;2023-11-18T12:52:13;100022.40;;;3.50
70050;BMP180;57391;51.306;22.680;2023-11-18T12:55:01;100025.80;;;3.48
70050;BMP180;57391;51.306;22.680;2023-11-18T12:57:48;100028.80;;;3.50
70050;BMP180;57391;51.306;22.680;2023-11-18T13:00:34;100035.00;;;3.48
70050;BMP180;57391;51.306;22.680;2023-11-18T13:03:22;100037.00;;;3.46
70050;BMP180;57391;51.306;22.680;2023-11-18T13:06:09;100043.00;;;3.46
70050;BMP180;57391;51.306;22.680;2023-11-18T13:08:57;100048.80;;;3.40
70050;BMP180;57391;51.306;22.680;2023-11-18T13:11:44;100049.60;;;3.40
70050;BMP180;57391;51.306;22.680;2023-11-18T13:14:33;100057.20;;;3.40
70050;BMP180;57391;51.306;22.680;2023-11-18T13:17:22;100060.20;;;3.38
70050;BMP180;57391;51.306;22.680;2023-11-18T13:20:13;100063.00;;;3.30
70050;BMP180;57391;51.306;22.680;2023-11-18T13:22:59;100062.00;;;3.30
70050;BMP180;57391;51.306;22.680;2023-11-18T13:25:47;100061.20;;;3.30
70050;BMP180;57391;51.306;22.680;2023-11-18T13:28:33;100073.60;;;3.26
70050;BMP180;57391;51.306;22.680;2023-11-18T13:31:19;100083.40;;;3.20
70050;BMP180;57391;51.306;22.680;2023-11-18T13:34:06;100089.20;;;3.20
70050;BMP180;57391;51.306;22.680;2023-11-18T13:36:53;100095.20;;;3.20
70050;BMP180;57391;51.306;22.680;2023-11-18T13:39:39;100096.20;;;3.10
70050;BMP180;57391;51.306;22.680;2023-11-18T13:42:26;100102.80;;;3.10
70050;BMP180;57391;51.306;22.680;2023-11-18T13:45:17;100101.20;;;3.08
70050;BMP180;57391;51.306;22.680;2023-11-18T13:48:05;100097.40;;;3.10
70050;BMP180;57391;51.306;22.680;2023-11-18T13:50:53;100103.80;;;3.10
70050;BMP180;57391;51.306;22.680;2023-11-18T13:53:42;100101.40;;;3.10
70050;BMP180;57391;51.306;22.680;2023-11-18T13:56:31;100107.60;;;3.02
70050;BMP180;57391;51.306;22.680;2023-11-18T13:59:18;100111.80;;;3.00
70050;BMP180;57391;51.306;22.680;2023-11-18T14:02:04;100118.00;;;3.00
70050;BMP180;57391;51.306;22.680;2023-11-18T14:04:50;100124.20;;;3.00
70050;BMP180;57391;51.306;22.680;2023-11-18T14:07:38;100127.80;;;3.00
70050;BMP180;57391;51.306;22.680;2023-11-18T14:10:24;100135.20;;;3.00
70050;BMP180;57391;51.306;22.680;2023-11-18T14:13:14;100130.80;;;2.90
70050;BMP180;57391;51.306;22.680;2023-11-18T14:16:02;100134.00;;;2.90
70050;BMP180;57391;51.306;22.680;2023-11-18T14:18:49;100139.00;;;2.90
70050;BMP180;57391;51.306;22.680;2023-11-18T14:21:35;100136.80;;;2.90
70050;BMP180;57391;51.306;22.680;2023-11-18T14:24:22;100143.80;;;2.90
70050;BMP180;57391;51.306;22.680;2023-11-18T14:27:13;100141.80;;;2.90
70050;BMP180;57391;51.306;22.680;2023-11-18T14:29:58;100149.20;;;2.90
70050;BMP180;57391;51.306;22.680;2023-11-18T14:32:44;100149.00;;;2.90
70050;BMP180;57391;51.306;22.680;2023-11-18T14:35:31;100150.20;;;2.90
70050;BMP180;57391;51.306;22.680;2023-11-18T14:38:21;100153.60;;;2.90
70050;BMP180;57391;51.306;22.680;2023-11-18T14:41:21;100153.60;;;2.90
70050;BMP180;57391;51.306;22.680;2023-11-18T14:44:10;100161.40;;;2.90
70050;BMP180;57391;51.306;22.680;2023-11-18T14:46:56;100158.60;;;2.90
70050;BMP180;57391;51.306;22.680;2023-11-18T14:49:44;100161.00;;;2.90
70050;BMP180;57391;51.306;22.680;2023-11-18T14:52:29;100160.60;;;2.90
70050;BMP180;57391;51.306;22.680;2023-11-18T14:55:14;100168.60;;;2.90
70050;BMP180;57391;51.306;22.680;2023-11-18T14:58:02;100171.40;;;2.90
70050;BMP180;57391;51.306;22.680;2023-11-18T15:00:49;100174.00;;;2.90
70050;BMP180;57391;51.306;22.680;2023-11-18T15:03:35;100180.20;;;2.90
70050;BMP180;57391;51.306;22.680;2023-11-18T15:06:26;100178.20;;;2.90
70050;BMP180;57391;51.306;22.680;2023-11-18T15:09:11;100175.80;;;2.84
70050;BMP180;57391;51.306;22.680;2023-11-18T15:11:57;100178.00;;;2.86
70050;BMP180;57391;51.306;22.680;2023-11-18T15:14:43;100177.20;;;2.90
70050;BMP180;57391;51.306;22.680;2023-11-18T15:17:29;100183.40;;;2.90
70050;BMP180;57391;51.306;22.680;2023-11-18T15:20:18;100191.40;;;2.90
70050;BMP180;57391;51.306;22.680;2023-11-18T15:23:11;100196.80;;;2.90
70050;BMP180;57391;51.306;22.680;2023-11-18T15:25:57;100206.60;;;2.90
70050;BMP180;57391;51.306;22.680;2023-11-18T15:28:42;100206.80;;;2.90
70050;BMP180;57391;51.306;22.680;2023-11-18T15:31:29;100211.20;;;2.90
70050;BMP180;57391;51.306;22.680;2023-11-18T15:34:14;100208.20;;;2.90
70050;BMP180;57391;51.306;22.680;2023-11-18T15:37:01;100210.40;;;2.90
70050;BMP180;57391;51.306;22.680;2023-11-18T15:39:49;100210.20;;;2.90
70050;BMP180;57391;51.306;22.680;2023-11-18T15:42:39;100214.40;;;2.90
70050;BMP180;57391;51.306;22.680;2023-11-18T15:45:25;100214.20;;;2.90
70050;BMP180;57391;51.306;22.680;2023-11-18T15:48:11;100224.60;;;2.90
70050;BMP180;57391;51.306;22.680;2023-11-18T15:50:57;100225.20;;;2.92
70050;BMP180;57391;51.306;22.680;2023-11-18T15:53:45;100227.80;;;2.92
70050;BMP180;57391;51.306;22.680;2023-11-18T15:56:30;100232.40;;;2.98
70050;BMP180;57391;51.306;22.680;2023-11-18T15:59:16;100235.20;;;2.94
70050;BMP180;57391;51.306;22.680;2023-11-18T16:02:01;100239.60;;;2.90
70050;BMP180;57391;51.306;22.680;2023-11-18T16:04:49;100238.20;;;2.94
70050;BMP180;57391;51.306;22.680;2023-11-18T16:07:34;100237.00;;;3.00
70050;BMP180;57391;51.306;22.680;2023-11-18T16:10:26;100241.60;;;3.00
70050;BMP180;57391;51.306;22.680;2023-11-18T16:13:12;100242.60;;;3.00
70050;BMP180;57391;51.306;22.680;2023-11-18T16:15:58;100248.20;;;2.98
70050;BMP180;57391;51.306;22.680;2023-11-18T16:18:47;100250.00;;;2.90
70050;BMP180;57391;51.306;22.680;2023-11-18T16:21:37;100254.40;;;2.90
70050;BMP180;57391;51.306;22.680;2023-11-18T16:24:23;100257.20;;;2.90
70050;BMP180;57391;51.306;22.680;2023-11-18T16:27:09;100257.60;;;2.90